createdAt,value
2023-02-22T00:00:19.879Z,1703.00
2023-02-22T00:01:19.886Z,1710.00
2023-02-22T00:02:19.898Z,1709.00
2023-02-22T00:04:19.854Z,1698.00
2023-02-22T00:05:19.835Z,1701.00
2023-02-22T00:54:50.841Z,500.00
2023-02-22T00:55:51.821Z,500.00
2023-02-22T00:56:51.811Z,500.00
2023-02-22T00:57:51.796Z,500.00
2023-02-22T00:58:51.791Z,500.00
2023-02-22T00:59:51.788Z,500.00
2023-02-22T01:00:51.835Z,443.00
2023-02-22T01:01:51.752Z,414.00
2023-02-22T01:02:51.741Z,404.00
2023-02-22T01:03:51.733Z,413.00
2023-02-22T01:04:51.731Z,425.00
2023-02-22T01:05:51.740Z,443.00
2023-02-22T01:06:51.710Z,474.00
2023-02-22T01:07:51.695Z,500.00
2023-02-22T01:08:51.697Z,502.00
2023-02-22T01:09:51.711Z,498.00
2023-02-22T01:10:51.706Z,501.00
2023-02-22T01:11:51.667Z,497.00
2023-02-22T01:12:51.668Z,501.00
2023-02-22T01:13:51.650Z,500.00
2023-02-22T01:14:51.649Z,503.00
2023-02-22T01:15:51.626Z,500.00
2023-02-22T01:16:51.691Z,502.00
2023-02-22T01:17:51.620Z,500.00
2023-02-22T01:18:51.624Z,501.00
2023-02-22T01:19:53.910Z,504.00
2023-02-22T01:20:51.588Z,507.00
2023-02-22T01:21:51.587Z,502.00
2023-02-22T01:22:51.586Z,505.00
2023-02-22T01:23:51.557Z,504.00
2023-02-22T01:24:51.540Z,502.00
2023-02-22T01:25:51.553Z,502.00
2023-02-22T01:26:51.566Z,505.00
2023-02-22T01:27:51.529Z,505.00
2023-02-22T01:28:51.523Z,500.00
2023-02-22T01:29:51.498Z,503.00
2023-02-22T01:30:51.619Z,504.00
2023-02-22T01:31:51.490Z,500.00
2023-02-22T01:32:51.498Z,507.00
2023-02-22T01:33:52.395Z,500.00
2023-02-22T01:34:51.464Z,504.00
2023-02-22T01:35:51.451Z,500.00
2023-02-22T01:36:51.434Z,507.00
2023-02-22T01:37:51.461Z,506.00
2023-02-22T01:38:51.420Z,503.00
2023-02-22T01:39:51.412Z,502.00
2023-02-22T01:40:51.434Z,502.00
2023-02-22T01:41:51.385Z,503.00
2023-02-22T01:42:51.926Z,505.00
2023-02-22T01:43:51.370Z,503.00
2023-02-22T01:44:51.367Z,502.00
2023-02-22T01:45:51.363Z,506.00
2023-02-22T01:46:51.335Z,503.00
2023-02-22T01:47:51.332Z,503.00
2023-02-22T01:48:51.325Z,501.00
2023-02-22T01:49:51.337Z,508.00
2023-02-22T01:50:51.311Z,505.00
2023-02-22T01:51:51.289Z,500.00
2023-02-22T01:52:51.292Z,504.00
2023-02-22T01:53:51.272Z,503.00
2023-02-22T01:54:51.274Z,504.00
2023-02-22T01:55:51.272Z,506.00
2023-02-22T01:56:51.264Z,503.00
2023-02-22T01:57:51.257Z,501.00
2023-02-22T01:58:51.259Z,504.00
2023-02-22T01:59:51.217Z,500.00
2023-02-22T02:00:51.218Z,505.00
2023-02-22T02:01:51.205Z,509.00
2023-02-22T02:02:51.200Z,505.00
2023-02-22T02:03:51.212Z,504.00
2023-02-22T02:04:51.210Z,503.00
2023-02-22T02:05:51.187Z,503.00
2023-02-22T02:06:51.151Z,503.00
2023-02-22T02:07:51.148Z,504.00
2023-02-22T02:08:51.150Z,503.00
2023-02-22T02:09:51.122Z,505.00
2023-02-22T02:10:51.118Z,507.00
2023-02-22T02:11:51.112Z,507.00
2023-02-22T02:12:51.106Z,503.00
2023-02-22T02:13:51.101Z,508.00
2023-02-22T02:14:51.112Z,506.00
2023-02-22T02:15:51.072Z,508.00
2023-02-22T02:16:51.132Z,505.00
2023-02-22T02:17:51.059Z,502.00
2023-02-22T02:18:51.057Z,504.00
2023-02-22T02:19:51.032Z,506.00
2023-02-22T02:20:51.030Z,511.00
2023-02-22T02:21:51.022Z,508.00
2023-02-22T02:22:51.004Z,505.00
2023-02-22T02:23:51.002Z,511.00
2023-02-22T02:24:50.987Z,507.00
2023-02-22T02:25:50.983Z,505.00
2023-02-22T02:26:50.976Z,503.00
2023-02-22T02:27:50.958Z,504.00
2023-02-22T02:28:50.950Z,505.00
2023-02-22T02:29:50.943Z,504.00
2023-02-22T02:30:50.961Z,506.00
2023-02-22T02:31:51.198Z,504.00
2023-02-22T02:32:50.912Z,507.00
2023-02-22T02:33:50.916Z,505.00
2023-02-22T02:34:50.918Z,501.00
2023-02-22T02:35:50.889Z,507.00
2023-02-22T02:36:50.876Z,509.00
2023-02-22T02:37:50.897Z,504.00
2023-02-22T02:38:50.943Z,510.00
2023-02-22T02:39:50.880Z,506.00
2023-02-22T02:40:50.850Z,508.00
2023-02-22T02:41:50.833Z,508.00
2023-02-22T02:42:50.821Z,506.00
2023-02-22T02:43:50.851Z,504.00
2023-02-22T02:44:50.803Z,505.00
2023-02-22T02:45:50.818Z,506.00
2023-02-22T02:46:50.831Z,505.00
2023-02-22T02:47:50.775Z,502.00
2023-02-22T02:48:50.778Z,505.00
2023-02-22T02:49:50.752Z,507.00
2023-02-22T02:50:50.745Z,501.00
2023-02-22T02:51:50.743Z,506.00
2023-02-22T02:52:50.728Z,500.00
2023-02-22T02:53:50.724Z,504.00
2023-02-22T02:54:50.709Z,501.00
2023-02-22T02:55:50.715Z,507.00
2023-02-22T02:56:50.699Z,506.00
2023-02-22T02:57:50.677Z,507.00
2023-02-22T02:58:50.676Z,508.00
2023-02-22T02:59:50.660Z,509.00
2023-02-22T03:00:50.656Z,506.00
2023-02-22T03:01:50.716Z,509.00
2023-02-22T03:02:50.673Z,509.00
2023-02-22T03:03:50.624Z,507.00
2023-02-22T03:04:50.615Z,511.00
2023-02-22T03:05:50.610Z,504.00
2023-02-22T03:06:50.603Z,510.00
2023-02-22T03:07:50.601Z,505.00
2023-02-22T03:08:50.612Z,500.00
2023-02-22T03:09:50.573Z,504.00
2023-02-22T03:10:50.566Z,504.00
2023-02-22T03:11:50.550Z,508.00
2023-02-22T03:12:50.543Z,509.00
2023-02-22T03:13:50.538Z,506.00
2023-02-22T03:14:50.522Z,513.00
2023-02-22T03:15:50.514Z,508.00
2023-02-22T03:16:50.512Z,510.00
2023-02-22T03:17:50.501Z,507.00
2023-02-22T03:18:50.515Z,508.00
2023-02-22T03:19:50.479Z,506.00
2023-02-22T03:20:50.470Z,509.00
2023-02-22T03:21:50.464Z,506.00
2023-02-22T03:22:50.463Z,507.00
2023-02-22T03:23:50.447Z,507.00
2023-02-22T03:24:50.442Z,506.00
2023-02-22T03:25:50.420Z,506.00
2023-02-22T03:26:50.411Z,511.00
2023-02-22T03:27:50.407Z,513.00
2023-02-22T03:28:50.395Z,509.00
2023-02-22T03:29:50.453Z,509.00
2023-02-22T03:30:50.480Z,506.00
2023-02-22T03:31:50.397Z,507.00
2023-02-22T03:32:50.360Z,507.00
2023-02-22T03:33:50.344Z,505.00
2023-02-22T03:34:50.371Z,509.00
2023-02-22T03:35:50.335Z,502.00
2023-02-22T03:36:50.969Z,509.00
2023-02-22T03:37:50.939Z,505.00
2023-02-22T03:38:50.304Z,513.00
2023-02-22T03:39:50.296Z,509.00
2023-02-22T03:40:50.284Z,507.00
2023-02-22T03:41:50.281Z,508.00
2023-02-22T03:42:50.264Z,510.00
2023-02-22T03:43:50.261Z,506.00
2023-02-22T03:44:50.252Z,511.00
2023-02-22T03:45:50.945Z,509.00
2023-02-22T03:46:50.240Z,505.00
2023-02-22T03:47:50.237Z,502.00
2023-02-22T03:48:50.208Z,502.00
2023-02-22T03:49:50.199Z,506.00
2023-02-22T03:50:50.224Z,505.00
2023-02-22T03:51:50.188Z,511.00
2023-02-22T03:52:50.174Z,505.00
2023-02-22T03:53:50.164Z,504.00
2023-02-22T03:54:50.155Z,507.00
2023-02-22T03:55:50.138Z,507.00
2023-02-22T03:56:50.141Z,507.00
2023-02-22T03:57:50.125Z,509.00
2023-02-22T03:58:50.125Z,510.00
2023-02-22T03:59:50.113Z,505.00
2023-02-22T04:00:50.095Z,504.00
2023-02-22T04:01:50.088Z,510.00
2023-02-22T04:02:50.108Z,506.00
2023-02-22T04:03:50.066Z,510.00
2023-02-22T04:04:50.129Z,510.00
2023-02-22T04:05:50.049Z,509.00
2023-02-22T04:06:50.071Z,509.00
2023-02-22T04:07:50.032Z,506.00
2023-02-22T04:08:50.045Z,503.00
2023-02-22T04:09:50.016Z,509.00
2023-02-22T04:10:50.001Z,508.00
2023-02-22T04:11:49.991Z,505.00
2023-02-22T04:12:49.983Z,509.00
2023-02-22T04:13:49.980Z,510.00
2023-02-22T04:14:49.967Z,509.00
2023-02-22T04:15:50.011Z,503.00
2023-02-22T04:16:49.944Z,505.00
2023-02-22T04:17:49.935Z,516.00
2023-02-22T04:18:49.927Z,511.00
2023-02-22T04:19:49.931Z,506.00
2023-02-22T04:20:49.912Z,514.00
2023-02-22T04:21:49.905Z,503.00
2023-02-22T04:22:49.921Z,509.00
2023-02-22T04:23:49.887Z,501.00
2023-02-22T04:24:49.874Z,509.00
2023-02-22T04:25:49.873Z,506.00
2023-02-22T04:26:49.924Z,506.00
2023-02-22T04:27:49.970Z,501.00
2023-02-22T04:28:50.456Z,504.00
2023-02-22T04:29:49.829Z,505.00
2023-02-22T04:30:49.828Z,509.00
2023-02-22T04:31:49.825Z,507.00
2023-02-22T04:32:49.794Z,507.00
2023-02-22T04:33:49.797Z,507.00
2023-02-22T04:34:49.777Z,510.00
2023-02-22T04:35:49.790Z,506.00
2023-02-22T04:36:49.759Z,504.00
2023-02-22T04:37:49.749Z,506.00
2023-02-22T04:38:49.765Z,509.00
2023-02-22T04:39:49.782Z,506.00
2023-02-22T04:40:49.724Z,503.00
2023-02-22T04:41:49.720Z,508.00
2023-02-22T04:42:49.705Z,507.00
2023-02-22T04:43:49.694Z,504.00
2023-02-22T04:44:49.688Z,500.00
2023-02-22T04:45:49.677Z,507.00
2023-02-22T04:46:49.667Z,510.00
2023-02-22T04:47:49.660Z,505.00
2023-02-22T04:48:49.649Z,505.00
2023-02-22T04:49:49.639Z,504.00
2023-02-22T04:50:49.631Z,504.00
2023-02-22T04:51:49.625Z,506.00
2023-02-22T04:52:49.614Z,505.00
2023-02-22T04:53:49.607Z,503.00
2023-02-22T04:54:49.639Z,508.00
2023-02-22T04:55:49.585Z,510.00
2023-02-22T04:56:49.572Z,505.00
2023-02-22T04:57:49.568Z,503.00
2023-02-22T04:58:49.561Z,505.00
2023-02-22T04:59:49.555Z,505.00
2023-02-22T05:00:49.542Z,503.00
2023-02-22T05:01:49.543Z,501.00
2023-02-22T05:02:49.603Z,508.00
2023-02-22T05:03:49.511Z,507.00
2023-02-22T05:04:49.556Z,503.00
2023-02-22T05:05:49.493Z,513.00
2023-02-22T05:06:49.486Z,505.00
2023-02-22T05:07:49.475Z,506.00
2023-02-22T05:08:49.462Z,502.00
2023-02-22T05:09:49.456Z,511.00
2023-02-22T05:10:49.473Z,507.00
2023-02-22T05:11:49.486Z,507.00
2023-02-22T05:12:49.431Z,505.00
2023-02-22T05:13:49.422Z,507.00
2023-02-22T05:14:49.421Z,508.00
2023-02-22T05:15:49.429Z,506.00
2023-02-22T05:16:49.383Z,508.00
2023-02-22T05:17:49.377Z,505.00
2023-02-22T05:18:49.373Z,502.00
2023-02-22T05:19:49.992Z,504.00
2023-02-22T05:20:49.354Z,504.00
2023-02-22T05:21:49.349Z,508.00
2023-02-22T05:22:49.331Z,507.00
2023-02-22T05:23:49.316Z,507.00
2023-02-22T05:24:49.311Z,510.00
2023-02-22T05:25:49.308Z,509.00
2023-02-22T05:26:49.326Z,508.00
2023-02-22T05:27:49.287Z,510.00
2023-02-22T05:28:49.281Z,508.00
2023-02-22T05:29:49.261Z,508.00
2023-02-22T05:30:49.260Z,505.00
2023-02-22T05:31:49.354Z,507.00
2023-02-22T05:32:49.249Z,504.00
2023-02-22T05:33:49.228Z,510.00
2023-02-22T05:34:49.219Z,510.00
2023-02-22T05:35:49.208Z,505.00
2023-02-22T05:36:49.208Z,503.00
2023-02-22T05:37:49.196Z,506.00
2023-02-22T05:38:49.182Z,503.00
2023-02-22T05:39:49.180Z,510.00
2023-02-22T05:40:49.163Z,506.00
2023-02-22T05:41:49.167Z,505.00
2023-02-22T05:42:49.212Z,510.00
2023-02-22T05:44:49.131Z,508.00
2023-02-22T05:45:49.119Z,508.00
2023-02-22T05:46:49.160Z,509.00
2023-02-22T05:47:49.104Z,510.00
2023-02-22T05:48:49.095Z,508.00
2023-02-22T05:49:49.088Z,505.00
2023-02-22T05:50:49.074Z,504.00
2023-02-22T05:51:49.065Z,506.00
2023-02-22T05:53:49.042Z,510.00
2023-02-22T05:54:49.988Z,504.00
2023-02-22T05:55:49.025Z,512.00
2023-02-22T05:56:49.014Z,511.00
2023-02-22T05:57:49.006Z,514.00
2023-02-22T05:58:49.109Z,510.00
2023-02-22T05:59:48.984Z,508.00
2023-02-22T06:00:48.977Z,509.00
2023-02-22T06:01:48.991Z,506.00
2023-02-22T06:02:48.966Z,504.00
2023-02-22T06:03:48.954Z,506.00
2023-02-22T06:04:48.940Z,503.00
2023-02-22T06:05:48.960Z,507.00
2023-02-22T06:06:48.922Z,502.00
2023-02-22T06:07:48.914Z,507.00
2023-02-22T06:08:48.899Z,509.00
2023-02-22T06:09:48.900Z,511.00
2023-02-22T06:10:48.884Z,508.00
2023-02-22T06:11:48.872Z,506.00
2023-02-22T06:12:48.878Z,506.00
2023-02-22T06:13:48.857Z,506.00
2023-02-22T06:14:48.869Z,505.00
2023-02-22T06:15:48.834Z,510.00
2023-02-22T06:16:48.826Z,506.00
2023-02-22T06:17:48.999Z,506.00
2023-02-22T06:18:48.869Z,505.00
2023-02-22T06:19:48.810Z,508.00
2023-02-22T06:20:48.806Z,509.00
2023-02-22T06:21:48.789Z,502.00
2023-02-22T06:22:49.362Z,507.00
2023-02-22T06:23:50.165Z,512.00
2023-02-22T06:24:48.751Z,510.00
2023-02-22T06:25:48.748Z,504.00
2023-02-22T06:26:48.764Z,514.00
2023-02-22T06:28:48.715Z,517.00
2023-02-22T06:29:48.712Z,514.00
2023-02-22T06:30:48.786Z,513.00
2023-02-22T06:31:48.793Z,516.00
2023-02-22T06:32:48.688Z,525.00
2023-02-22T06:34:48.670Z,524.00
2023-02-22T06:36:48.664Z,531.00
2023-02-22T06:37:48.668Z,532.00
2023-02-22T06:39:48.615Z,538.00
2023-02-22T06:40:48.613Z,539.00
2023-02-22T06:41:48.706Z,546.00
2023-02-22T06:42:48.600Z,550.00
2023-02-22T06:44:49.741Z,553.00
2023-02-22T06:45:48.639Z,560.00
2023-02-22T06:46:48.594Z,560.00
2023-02-22T06:47:48.559Z,567.00
2023-02-22T06:49:48.533Z,572.00
2023-02-22T06:50:48.590Z,569.00
2023-02-22T06:51:48.500Z,572.00
2023-02-22T06:52:48.492Z,576.00
2023-02-22T06:53:48.541Z,587.00
2023-02-22T06:55:48.471Z,591.00
2023-02-22T07:00:49.458Z,621.00
2023-02-22T07:03:04.099Z,630.00
2023-02-22T07:03:51.738Z,631.00
2023-02-22T07:04:51.589Z,631.00
2023-02-22T07:25:48.197Z,628.00
2023-02-22T07:26:48.226Z,629.00
2023-02-22T07:42:48.043Z,624.00
2023-02-22T07:45:48.129Z,625.00
2023-02-22T07:52:47.951Z,628.00
2023-02-22T07:54:48.041Z,615.00
2023-02-22T08:01:51.243Z,621.00
2023-02-22T08:15:47.777Z,642.00
2023-02-22T08:32:47.753Z,679.00
2023-02-22T08:34:47.573Z,673.00
2023-02-22T08:40:47.521Z,629.00
2023-02-22T08:42:47.502Z,638.00
2023-02-22T08:43:47.501Z,647.00
2023-02-22T08:44:47.478Z,644.00
2023-02-22T08:45:47.649Z,665.00
2023-02-22T08:48:47.439Z,703.00
2023-02-22T08:49:47.591Z,710.00
2023-02-22T08:52:47.414Z,768.00
2023-02-22T08:54:47.404Z,400.00
2023-02-22T08:56:47.549Z,466.00
2023-02-22T08:58:47.343Z,490.00
2023-02-22T09:02:47.306Z,504.00
2023-02-22T09:03:47.394Z,503.00
2023-02-22T09:04:47.292Z,509.00
2023-02-22T09:05:47.628Z,502.00
2023-02-22T09:07:47.342Z,504.00
2023-02-22T09:08:47.246Z,501.00
2023-02-22T09:09:47.243Z,501.00
2023-02-22T09:11:47.219Z,534.00
2023-02-22T09:12:47.224Z,536.00
2023-02-22T09:13:47.199Z,505.00
2023-02-22T09:14:47.193Z,531.00
2023-02-22T09:17:47.172Z,532.00
2023-02-22T09:18:47.152Z,515.00
2023-02-22T09:19:47.145Z,556.00
2023-02-22T09:20:47.152Z,518.00
2023-02-22T09:21:47.132Z,551.00
2023-02-22T09:23:47.109Z,524.00
2023-02-22T09:25:47.083Z,506.00
2023-02-22T09:26:47.125Z,512.00
2023-02-22T09:27:47.074Z,513.00
2023-02-22T09:28:47.060Z,505.00
2023-02-22T09:30:47.147Z,507.00
2023-02-22T09:31:47.090Z,508.00
2023-02-22T09:32:47.321Z,511.00
2023-02-22T09:33:47.545Z,547.00
2023-02-22T09:34:47.002Z,544.00
2023-02-22T09:35:46.995Z,535.00
2023-02-22T09:36:47.064Z,529.00
2023-02-22T09:37:47.020Z,492.00
2023-02-22T09:38:46.982Z,499.00
2023-02-22T09:40:46.958Z,551.00
2023-02-22T09:41:47.065Z,782.00
2023-02-22T09:42:46.950Z,1128.00
2023-02-22T09:43:46.924Z,1313.00
2023-02-22T09:44:46.919Z,1409.00
2023-02-22T09:45:46.984Z,1468.00
2023-02-22T09:46:47.069Z,1574.00
2023-02-22T09:47:46.922Z,1648.00
2023-02-22T09:48:46.880Z,1723.00
2023-02-22T09:49:46.858Z,1783.00
2023-02-22T09:50:46.906Z,1829.00
2023-02-22T09:52:46.837Z,1950.00
2023-02-22T09:54:46.831Z,2032.00
2023-02-22T09:55:46.809Z,2080.00
2023-02-22T09:56:46.804Z,2098.00
2023-02-22T09:57:46.789Z,2153.00
2023-02-22T09:58:46.806Z,2176.00
2023-02-22T09:59:46.799Z,2223.00
2023-02-22T10:00:46.763Z,2255.00
2023-02-22T10:01:46.754Z,2279.00
2023-02-22T10:02:46.750Z,2322.00
2023-02-22T10:03:46.805Z,2356.00
2023-02-22T10:05:49.935Z,2390.00
2023-02-22T10:07:47.330Z,2401.00
2023-02-22T10:08:46.702Z,2419.00
2023-02-22T10:09:46.688Z,2461.00
2023-02-22T10:10:46.676Z,2511.00
2023-02-22T10:13:46.660Z,2576.00
2023-02-22T10:14:46.666Z,2578.00
2023-02-22T10:15:46.631Z,2601.00
2023-02-22T10:17:46.610Z,2633.00
2023-02-22T10:18:46.604Z,2642.00
2023-02-22T10:19:46.592Z,2672.00
2023-02-22T10:20:46.588Z,2685.00
2023-02-22T10:21:46.586Z,2689.00
2023-02-22T10:22:46.584Z,2719.00
2023-02-22T10:23:47.115Z,2722.00
2023-02-22T10:24:46.552Z,2689.00
2023-02-22T10:25:46.594Z,1597.00
2023-02-22T10:26:46.575Z,1301.00
2023-02-22T10:27:46.518Z,935.00
2023-02-22T10:28:46.516Z,823.00
2023-02-22T10:29:46.503Z,838.00
2023-02-22T10:30:46.546Z,1336.00
2023-02-22T10:31:46.775Z,1373.00
2023-02-22T10:32:46.478Z,887.00
2023-02-22T10:33:46.474Z,1114.00
2023-02-22T10:34:46.458Z,577.00
2023-02-22T10:35:47.160Z,518.00
2023-02-22T10:36:46.445Z,492.00
2023-02-22T10:37:46.698Z,508.00
2023-02-22T10:38:46.424Z,529.00
2023-02-22T10:39:46.471Z,508.00
2023-02-22T10:40:46.402Z,500.00
2023-02-22T10:41:46.408Z,503.00
2023-02-22T10:42:46.588Z,535.00
2023-02-22T10:43:46.386Z,433.00
2023-02-22T10:44:46.375Z,497.00
2023-02-22T10:45:46.477Z,514.00
2023-02-22T10:46:46.377Z,511.00
2023-02-22T10:47:46.350Z,550.00
2023-02-22T10:48:46.349Z,495.00
2023-02-22T10:49:46.337Z,499.00
2023-02-22T10:50:46.322Z,505.00
2023-02-22T10:51:46.311Z,495.00
2023-02-22T10:52:46.310Z,525.00
2023-02-22T10:53:46.300Z,563.00
2023-02-22T10:54:46.286Z,544.00
2023-02-22T10:55:46.312Z,594.00
2023-02-22T10:56:46.274Z,599.00
2023-02-22T10:58:46.253Z,508.00
2023-02-22T10:59:46.292Z,500.00
2023-02-22T11:00:46.769Z,489.00
2023-02-22T11:01:46.274Z,508.00
2023-02-22T11:02:46.264Z,579.00
2023-02-22T11:03:46.206Z,574.00
2023-02-22T11:04:46.238Z,568.00
2023-02-22T11:05:46.186Z,554.00
2023-02-22T11:06:46.179Z,620.00
2023-02-22T11:07:46.177Z,788.00
2023-02-22T11:08:46.156Z,685.00
2023-02-22T11:09:46.149Z,771.00
2023-02-22T11:10:46.150Z,796.00
2023-02-22T11:13:23.433Z,500.00
2023-02-22T11:14:24.701Z,500.00
2023-02-22T11:15:24.415Z,500.00
2023-02-22T11:16:24.505Z,500.00
2023-02-22T11:17:24.391Z,500.00
2023-02-22T11:18:24.400Z,482.00
2023-02-22T11:19:24.416Z,503.00
2023-02-22T11:20:24.637Z,556.00
2023-02-22T11:21:24.350Z,537.00
2023-02-22T11:22:24.372Z,511.00
2023-02-22T11:23:24.436Z,517.00
2023-02-22T11:24:24.393Z,557.00
2023-02-22T11:25:24.321Z,552.00
2023-02-22T11:26:24.313Z,503.00
2023-02-22T11:27:24.311Z,510.00
2023-02-22T11:28:25.116Z,520.00
2023-02-22T11:29:24.403Z,561.00
2023-02-22T11:30:24.307Z,524.00
2023-02-22T11:31:24.292Z,522.00
2023-02-22T11:32:24.308Z,513.00
2023-02-22T11:33:24.260Z,520.00
2023-02-22T11:34:24.346Z,501.00
2023-02-22T11:35:24.257Z,509.00
2023-02-22T11:36:24.245Z,508.00
2023-02-22T11:37:24.643Z,511.00
2023-02-22T11:38:24.225Z,529.00
2023-02-22T11:39:24.254Z,520.00
2023-02-22T11:40:24.749Z,600.00
2023-02-22T11:41:24.223Z,589.00
2023-02-22T11:42:24.178Z,572.00
2023-02-22T11:43:24.153Z,662.00
2023-02-22T11:44:24.162Z,841.00
2023-02-22T11:45:24.679Z,678.00
2023-02-22T11:46:24.163Z,877.00
2023-02-22T11:47:24.113Z,859.00
2023-02-22T11:48:25.100Z,754.00
2023-02-22T11:49:24.094Z,757.00
2023-02-22T11:50:24.110Z,685.00
2023-02-22T11:51:24.135Z,683.00
2023-02-22T11:52:26.159Z,636.00
2023-02-22T11:53:24.052Z,606.00
2023-02-22T11:54:24.042Z,641.00
2023-02-22T11:55:36.301Z,644.00
2023-02-22T11:56:36.863Z,637.00
2023-02-22T11:57:24.026Z,636.00
2023-02-22T11:58:24.010Z,593.00
2023-02-22T11:59:24.144Z,585.00
2023-02-22T12:00:23.993Z,588.00
2023-02-22T12:01:23.987Z,613.00
2023-02-22T12:02:23.978Z,519.00
2023-02-22T12:03:23.983Z,569.00
2023-02-22T12:04:24.027Z,546.00
2023-02-22T12:05:23.947Z,499.00
2023-02-22T12:06:23.991Z,500.00
2023-02-22T12:07:23.932Z,544.00
2023-02-22T12:08:23.923Z,501.00
2023-02-22T12:09:23.916Z,513.00
2023-02-22T12:10:23.904Z,508.00
2023-02-22T12:11:23.912Z,558.00
2023-02-22T12:12:24.144Z,540.00
2023-02-22T12:13:24.617Z,551.00
2023-02-22T12:14:24.135Z,526.00
2023-02-22T12:15:23.852Z,513.00
2023-02-22T12:16:23.846Z,516.00
2023-02-22T12:17:23.850Z,510.00
2023-02-22T12:18:23.832Z,506.00
2023-02-22T12:19:23.853Z,539.00
2023-02-22T12:20:24.617Z,499.00
2023-02-22T12:21:23.812Z,529.00
2023-02-22T12:22:23.817Z,522.00
2023-02-22T12:23:23.785Z,519.00
2023-02-22T12:24:23.784Z,496.00
2023-02-22T12:25:23.765Z,500.00
2023-02-22T12:26:23.758Z,534.00
2023-02-22T12:27:23.771Z,558.00
2023-02-22T12:28:24.988Z,585.00
2023-02-22T12:29:23.909Z,530.00
2023-02-22T12:30:24.000Z,509.00
2023-02-22T12:31:23.917Z,502.00
2023-02-22T12:32:24.028Z,508.00
2023-02-22T12:33:24.127Z,532.00
2023-02-22T12:34:23.884Z,537.00
2023-02-22T12:35:23.854Z,575.00
2023-02-22T12:36:24.638Z,573.00
2023-02-22T12:37:23.838Z,554.00
2023-02-22T12:38:24.253Z,576.00
2023-02-22T12:39:23.812Z,615.00
2023-02-22T12:40:23.805Z,589.00
2023-02-22T12:41:23.797Z,708.00
2023-02-22T12:42:23.785Z,655.00
2023-02-22T12:43:23.780Z,647.00
2023-02-22T12:44:23.773Z,689.00
2023-02-22T12:45:23.758Z,710.00
2023-02-22T12:46:23.772Z,799.00
2023-02-22T12:47:23.739Z,796.00
2023-02-22T12:48:23.732Z,820.00
2023-02-22T12:49:23.718Z,808.00
2023-02-22T12:50:23.714Z,868.00
2023-02-22T12:51:24.639Z,824.00
2023-02-22T12:52:23.698Z,717.00
2023-02-22T12:53:23.684Z,669.00
2023-02-22T12:54:23.733Z,718.00
2023-02-22T12:55:23.667Z,712.00
2023-02-22T12:56:23.656Z,777.00
2023-02-22T12:57:23.654Z,664.00
2023-02-22T12:58:23.642Z,649.00
2023-02-22T12:59:24.133Z,623.00
2023-02-22T13:00:23.645Z,586.00
2023-02-22T13:01:23.640Z,576.00
2023-02-22T13:02:23.598Z,583.00
2023-02-22T13:03:23.597Z,552.00
2023-02-22T13:04:23.608Z,541.00
2023-02-22T13:05:23.681Z,546.00
2023-02-22T13:06:23.576Z,567.00
2023-02-22T13:07:23.563Z,585.00
2023-02-22T13:08:23.551Z,573.00
2023-02-22T13:09:24.137Z,749.00
2023-02-22T13:10:23.581Z,1098.00
2023-02-22T13:11:23.673Z,1469.00
2023-02-22T13:12:24.141Z,1804.00
2023-02-22T13:13:24.144Z,2115.00
2023-02-22T13:14:23.495Z,2337.00
2023-02-22T13:15:23.483Z,2610.00
2023-02-22T13:16:24.138Z,2749.00
2023-02-22T13:17:23.473Z,2916.00
2023-02-22T13:18:23.469Z,3042.00
2023-02-22T13:19:24.143Z,3202.00
2023-02-22T13:21:23.426Z,3301.00
2023-02-22T13:22:25.290Z,3362.00
2023-02-22T13:23:23.641Z,3452.00
2023-02-22T13:24:23.397Z,3536.00
2023-02-22T13:25:24.142Z,3588.00
2023-02-22T13:26:24.176Z,3577.00
2023-02-22T13:27:24.138Z,3579.00
2023-02-22T13:28:23.381Z,3573.00
2023-02-22T13:29:23.354Z,3575.00
2023-02-22T13:30:22.396Z,3573.00
2023-02-22T13:31:23.358Z,3589.00
2023-02-22T13:32:24.307Z,3584.00
2023-02-22T13:33:23.647Z,3600.00
2023-02-22T13:34:23.309Z,3616.00
2023-02-22T13:35:23.649Z,3622.00
2023-02-22T13:36:23.289Z,3641.00
2023-02-22T13:37:23.279Z,3665.00
2023-02-22T13:38:23.266Z,3688.00
2023-02-22T13:39:23.261Z,3686.00
2023-02-22T13:40:23.264Z,3691.00
2023-02-22T13:41:23.246Z,3685.00
2023-02-22T13:42:23.260Z,3700.00
2023-02-22T13:43:23.257Z,3692.00
2023-02-22T13:44:23.212Z,3708.00
2023-02-22T13:45:23.230Z,3702.00
2023-02-22T13:46:23.283Z,3706.00
2023-02-22T13:47:23.190Z,3708.00
2023-02-22T13:48:23.669Z,3716.00
2023-02-22T13:51:23.150Z,3702.00
2023-02-22T13:52:23.147Z,3703.00
2023-02-22T13:53:23.132Z,3699.00
2023-02-22T13:54:23.160Z,3701.00
2023-02-22T13:57:23.112Z,3698.00
2023-02-22T13:58:23.113Z,3684.00
2023-02-22T13:59:23.148Z,3702.00
2023-02-22T14:00:25.647Z,3688.00
2023-02-22T14:01:23.097Z,3688.00
2023-02-22T14:02:25.649Z,3691.00
2023-02-22T14:05:23.103Z,3695.00
2023-02-22T14:07:23.008Z,3712.00
2023-02-22T14:08:23.006Z,3700.00
2023-02-22T14:09:23.000Z,3702.00
2023-02-22T14:10:25.652Z,3684.00
2023-02-22T14:11:23.157Z,3686.00
2023-02-22T14:12:23.049Z,3686.00
2023-02-22T14:13:23.161Z,3689.00
2023-02-22T14:14:22.976Z,3677.00
2023-02-22T14:15:30.046Z,3688.00
2023-02-22T14:22:25.668Z,3670.00
2023-02-22T14:23:23.282Z,3694.00
2023-02-22T14:25:28.009Z,3632.00
2023-02-22T14:30:25.746Z,3638.00
2023-02-22T14:31:35.419Z,3634.00
2023-02-22T14:39:25.684Z,3620.00
2023-02-22T14:55:25.663Z,3552.00
2023-02-22T14:58:22.694Z,3556.00
2023-02-22T14:59:22.682Z,3557.00
2023-02-22T15:00:22.749Z,3556.00
2023-02-22T15:01:25.464Z,3554.00
2023-02-22T15:02:22.849Z,3556.00
2023-02-22T15:03:22.749Z,3557.00
2023-02-22T15:04:22.789Z,3558.00
2023-02-22T15:05:22.730Z,3548.00
2023-02-22T15:06:22.722Z,3533.00
2023-02-22T15:07:23.673Z,3542.00
2023-02-22T15:08:22.713Z,3542.00
2023-02-22T15:09:28.926Z,3534.00
2023-02-22T15:10:22.682Z,3537.00
2023-02-22T15:11:22.677Z,3537.00
2023-02-22T15:12:22.748Z,3538.00
2023-02-22T15:13:22.695Z,3539.00
2023-02-22T15:14:26.279Z,3528.00
2023-02-22T15:15:23.186Z,3536.00
2023-02-22T15:16:23.305Z,3537.00
2023-02-22T15:17:22.629Z,3537.00
2023-02-22T15:18:22.771Z,3540.00
2023-02-22T15:19:23.175Z,3522.00
2023-02-22T15:20:23.174Z,3518.00
2023-02-22T15:21:22.677Z,3519.00
2023-02-22T15:22:22.601Z,3510.00
2023-02-22T15:23:23.183Z,3503.00
2023-02-22T15:24:22.569Z,3509.00
2023-02-22T15:25:23.186Z,3499.00
2023-02-22T15:26:22.583Z,3504.00
2023-02-22T15:27:22.545Z,3491.00
2023-02-22T15:28:29.196Z,3487.00
2023-02-22T15:29:22.525Z,3490.00
2023-02-22T15:30:22.575Z,3492.00
2023-02-22T15:31:22.554Z,3494.00
2023-02-22T15:32:22.652Z,3499.00
2023-02-22T15:33:22.513Z,3497.00
2023-02-22T15:34:22.555Z,3488.00
2023-02-22T15:35:22.481Z,3487.00
2023-02-22T15:36:22.713Z,3481.00
2023-02-22T15:37:22.459Z,3486.00
2023-02-22T15:39:22.438Z,3461.00
2023-02-22T15:40:22.433Z,3463.00
2023-02-22T15:41:23.378Z,3461.00
2023-02-22T15:42:22.415Z,3463.00
2023-02-22T15:43:22.414Z,3465.00
2023-02-22T15:44:29.196Z,3460.00
2023-02-22T15:45:22.392Z,3462.00
2023-02-22T15:46:22.383Z,3465.00
2023-02-22T15:47:22.374Z,3463.00
2023-02-22T15:48:23.190Z,3462.00
2023-02-22T15:49:22.362Z,3458.00
2023-02-22T15:50:22.370Z,3464.00
2023-02-22T15:51:23.193Z,3453.00
2023-02-22T15:52:22.331Z,3461.00
2023-02-22T15:53:25.197Z,3447.00
2023-02-22T15:54:27.572Z,3447.00
2023-02-22T15:55:24.761Z,3449.00
2023-02-22T15:56:22.289Z,3449.00
2023-02-22T15:57:22.282Z,3454.00
2023-02-22T15:58:22.288Z,3453.00
2023-02-22T15:59:23.198Z,3458.00
2023-02-22T16:00:22.273Z,3463.00
2023-02-22T16:01:22.364Z,3435.00
2023-02-22T16:02:25.286Z,3438.00
2023-02-22T16:03:22.234Z,3439.00